createdAt,value
2022-08-17T00:01:33.345Z,7.97
2022-08-17T00:04:19.457Z,9.32
2022-08-17T00:06:49.681Z,6.35
2022-08-17T00:12:41.176Z,8.35
2022-08-17T00:14:34.965Z,8.50
2022-08-17T00:17:03.771Z,7.15
2022-08-17T00:19:32.448Z,9.70
2022-08-17T00:22:33.173Z,11.00
2022-08-17T00:24:47.266Z,8.93
2022-08-17T00:27:13.814Z,10.93
2022-08-17T00:29:40.495Z,9.35
2022-08-17T00:33:23.255Z,10.90
2022-08-17T00:34:53.903Z,8.52
2022-08-17T00:37:20.419Z,9.30
2022-08-17T00:39:46.941Z,10.32
2022-08-17T00:42:18.808Z,9.75
2022-08-17T00:44:45.722Z,8.23
2022-08-17T00:47:12.335Z,7.32
2022-08-17T00:49:38.862Z,7.70
2022-08-17T00:52:15.537Z,7.03
2022-08-17T00:54:44.848Z,8.20
2022-08-17T00:57:21.101Z,7.80
2022-08-17T01:00:02.943Z,9.70
2022-08-17T01:02:41.673Z,7.28
2022-08-17T01:05:21.320Z,8.57
2022-08-17T01:07:50.628Z,7.18
2022-08-17T01:10:59.306Z,7.47
2022-08-17T01:13:07.897Z,8.63
2022-08-17T01:15:37.493Z,8.40
2022-08-17T01:18:09.605Z,8.75
2022-08-17T01:20:47.915Z,7.75
2022-08-17T01:23:20.783Z,7.20
2022-08-17T01:25:54.189Z,8.02
2022-08-17T01:28:33.336Z,7.70
2022-08-17T01:31:08.999Z,7.28
2022-08-17T01:33:36.204Z,6.47
2022-08-17T01:36:03.612Z,6.20
2022-08-17T01:38:31.848Z,6.88
2022-08-17T01:41:06.559Z,11.73
2022-08-17T01:43:41.466Z,7.90
2022-08-17T01:46:08.066Z,11.82
2022-08-17T01:48:36.915Z,6.75
2022-08-17T01:51:05.946Z,8.10
2022-08-17T01:53:37.867Z,8.13
2022-08-17T01:56:09.926Z,8.75
2022-08-17T01:58:37.744Z,10.25
2022-08-17T02:01:06.437Z,7.68
2022-08-17T02:03:36.182Z,8.07
2022-08-17T02:06:05.250Z,8.98
2022-08-17T02:08:38.835Z,8.70
2022-08-17T02:11:22.400Z,10.10
2022-08-17T02:13:57.805Z,7.50
2022-08-17T02:16:37.027Z,7.90
2022-08-17T02:19:07.989Z,7.82
2022-08-17T02:21:36.093Z,8.23
2022-08-17T02:24:03.623Z,10.63
2022-08-17T02:26:30.175Z,8.48
2022-08-17T02:28:56.810Z,9.90
2022-08-17T02:31:25.547Z,9.02
2022-08-17T02:33:56.570Z,7.88
2022-08-17T02:36:27.607Z,7.45
2022-08-17T02:38:54.220Z,9.70
2022-08-17T02:41:20.849Z,9.60
2022-08-17T02:43:47.314Z,8.25
2022-08-17T02:46:13.939Z,9.82
2022-08-17T02:48:40.546Z,8.35
2022-08-17T02:51:07.038Z,8.95
2022-08-17T02:53:35.742Z,8.18
2022-08-17T02:56:02.858Z,8.38
2022-08-17T02:58:35.350Z,9.25
2022-08-17T03:01:05.940Z,9.30
2022-08-17T03:03:33.072Z,7.97
2022-08-17T03:05:59.768Z,10.18
2022-08-17T03:08:27.208Z,8.63
2022-08-17T03:10:53.915Z,8.85
2022-08-17T03:13:20.772Z,9.75
2022-08-17T03:15:48.762Z,11.50
2022-08-17T03:18:24.889Z,12.38
2022-08-17T03:20:54.591Z,8.52
2022-08-17T03:23:24.307Z,8.93
2022-08-17T03:25:53.832Z,9.95
2022-08-17T03:28:21.555Z,9.20
2022-08-17T03:30:48.168Z,10.27
2022-08-17T03:33:14.830Z,9.07
2022-08-17T03:35:41.427Z,9.38
2022-08-17T03:38:12.060Z,9.70
2022-08-17T03:40:58.108Z,9.57
2022-08-17T03:43:28.415Z,12.40
2022-08-17T03:46:27.704Z,12.88
2022-08-17T03:49:18.949Z,11.85
2022-08-17T03:52:04.093Z,9.35
2022-08-17T03:54:48.824Z,9.02
2022-08-17T03:57:15.426Z,14.32
2022-08-17T03:59:42.331Z,11.88
2022-08-17T04:02:32.002Z,9.75
2022-08-17T04:04:59.480Z,9.40
2022-08-17T04:07:28.651Z,10.20
2022-08-17T04:09:59.300Z,12.73
2022-08-17T04:12:30.537Z,8.70
2022-08-17T04:14:57.546Z,9.20
2022-08-17T04:17:27.571Z,9.73
2022-08-17T04:19:55.213Z,10.63
2022-08-17T04:22:31.159Z,11.20
2022-08-17T04:25:21.584Z,10.77
2022-08-17T04:27:48.731Z,11.43
2022-08-17T04:30:15.835Z,10.95
2022-08-17T04:33:10.700Z,10.57
2022-08-17T04:35:49.192Z,14.38
2022-08-17T04:38:25.824Z,15.10
2022-08-17T04:41:11.909Z,11.38
2022-08-17T04:43:40.237Z,11.60
2022-08-17T04:46:12.907Z,9.93
2022-08-17T04:48:42.691Z,11.95
2022-08-17T04:51:18.988Z,11.65
2022-08-17T04:53:54.258Z,11.32
2022-08-17T04:56:22.616Z,9.27
2022-08-17T04:58:54.490Z,13.52
2022-08-17T05:01:24.017Z,11.23
2022-08-17T05:03:52.775Z,11.32
2022-08-17T05:06:19.306Z,11.13
2022-08-17T05:08:45.913Z,10.98
2022-08-17T05:11:14.321Z,18.63
2022-08-17T05:13:40.878Z,12.15
2022-08-17T05:16:09.016Z,10.77
2022-08-17T05:18:37.145Z,12.77
2022-08-17T05:21:03.813Z,10.50
2022-08-17T05:23:41.698Z,13.45
2022-08-17T05:26:26.370Z,10.67
2022-08-17T05:28:55.444Z,9.70
2022-08-17T05:31:25.277Z,12.45
2022-08-17T05:33:52.373Z,11.40
2022-08-17T05:36:43.580Z,8.52
2022-08-17T05:39:05.708Z,11.15
2022-08-17T05:41:32.317Z,11.57
2022-08-17T05:43:58.896Z,10.40
2022-08-17T05:46:28.733Z,13.18
2022-08-17T05:49:03.364Z,9.45
2022-08-17T05:51:51.163Z,14.95
2022-08-17T05:54:47.961Z,14.68
2022-08-17T05:57:43.334Z,12.02
2022-08-17T06:00:31.249Z,13.57
2022-08-17T06:03:10.127Z,13.75
2022-08-17T06:06:14.914Z,12.57
2022-08-17T06:09:14.376Z,12.07
2022-08-17T06:12:03.492Z,19.10
2022-08-17T06:15:19.518Z,12.27
2022-08-17T06:17:46.632Z,12.90
2022-08-17T06:20:15.627Z,15.05
2022-08-17T06:22:49.558Z,12.50
2022-08-17T06:25:31.225Z,11.98
2022-08-17T06:28:04.663Z,12.95
2022-08-17T06:30:59.633Z,11.30
2022-08-17T06:33:34.251Z,13.52
2022-08-17T06:36:33.569Z,11.68
2022-08-17T06:39:02.940Z,12.05
2022-08-17T06:42:02.936Z,14.07
2022-08-17T06:44:52.520Z,13.25
2022-08-17T06:47:52.496Z,10.55
2022-08-17T06:50:40.104Z,9.45
2022-08-17T06:53:21.243Z,10.00
2022-08-17T06:56:06.856Z,9.82
2022-08-17T06:58:35.677Z,9.93
2022-08-17T07:01:09.865Z,9.30
2022-08-17T07:04:13.848Z,10.05
2022-08-17T07:06:56.889Z,9.40
2022-08-17T07:09:33.104Z,8.27
2022-08-17T07:12:15.838Z,6.00
2022-08-17T07:15:05.465Z,9.52
2022-08-17T07:17:46.427Z,7.65
2022-08-17T07:20:22.607Z,8.43
2022-08-17T07:23:01.878Z,8.50
2022-08-17T07:25:30.408Z,6.03
2022-08-17T07:28:02.615Z,8.98
2022-08-17T07:30:46.870Z,8.63
2022-08-17T07:33:19.974Z,7.18
2022-08-17T07:35:48.349Z,9.70
2022-08-17T07:38:25.891Z,7.40
2022-08-17T07:41:02.844Z,7.43
2022-08-17T07:43:32.863Z,5.22
2022-08-17T07:46:29.777Z,6.55
2022-08-17T07:49:16.339Z,5.32
2022-08-17T07:51:42.918Z,8.90
2022-08-17T07:54:15.426Z,7.53
2022-08-17T07:56:49.254Z,6.05
2022-08-17T07:59:24.453Z,4.28
2022-08-17T08:01:57.521Z,5.60
2022-08-17T08:04:59.158Z,10.60
2022-08-17T08:07:39.367Z,7.37
2022-08-17T08:10:11.233Z,6.40
2022-08-17T08:12:48.959Z,8.48
2022-08-17T08:15:25.732Z,7.15
2022-08-17T08:18:03.176Z,8.98
2022-08-17T08:20:53.252Z,6.55
2022-08-17T08:23:34.177Z,7.15
2022-08-17T08:26:31.799Z,6.22
2022-08-17T08:29:22.455Z,5.97
2022-08-17T08:32:33.087Z,7.78
2022-08-17T08:35:08.494Z,10.05
2022-08-17T08:38:10.949Z,4.95
2022-08-17T08:40:49.475Z,6.25
2022-08-17T08:43:30.844Z,8.98
2022-08-17T08:46:15.521Z,10.20
2022-08-17T08:49:12.205Z,4.90
2022-08-17T08:51:55.923Z,6.50
2022-08-17T08:54:48.161Z,9.02
2022-08-17T08:57:25.549Z,6.63
2022-08-17T09:00:26.174Z,7.30
2022-08-17T09:03:28.068Z,8.07
2022-08-17T09:06:33.443Z,5.57
2022-08-17T09:09:33.681Z,6.07
2022-08-17T09:12:20.048Z,4.57
2022-08-17T09:15:03.161Z,6.72
2022-08-17T09:17:43.703Z,4.53
2022-08-17T09:20:30.172Z,6.22
2022-08-17T09:23:08.642Z,8.18
2022-08-17T09:26:01.010Z,9.70
2022-08-17T09:28:38.630Z,4.78
2022-08-17T09:31:19.078Z,4.35
2022-08-17T09:33:48.955Z,6.75
2022-08-17T09:36:23.015Z,6.75
2022-08-17T09:39:08.344Z,5.88
2022-08-17T09:41:49.207Z,6.60
2022-08-17T09:44:46.647Z,4.97
2022-08-17T09:47:32.482Z,7.28
2022-08-17T09:51:05.341Z,7.53
2022-08-17T09:53:13.634Z,6.28
2022-08-17T09:55:58.902Z,5.25
2022-08-17T09:58:43.949Z,3.13
2022-08-17T10:01:31.319Z,4.00
2022-08-17T10:04:29.646Z,6.93
2022-08-17T10:07:24.807Z,3.22
2022-08-17T10:10:15.256Z,5.20
2022-08-17T10:12:53.081Z,3.17
2022-08-17T10:15:37.927Z,3.50
2022-08-17T10:18:19.936Z,4.50
2022-08-17T10:21:19.899Z,5.53
2022-08-17T10:24:14.258Z,3.95
2022-08-17T10:26:55.503Z,3.70
2022-08-17T10:29:28.871Z,8.43
2022-08-17T10:32:04.077Z,6.45
2022-08-17T10:34:56.494Z,4.95
2022-08-17T10:37:35.335Z,4.82
2022-08-17T10:40:16.086Z,6.13
2022-08-17T10:42:59.065Z,7.72
2022-08-17T10:45:47.030Z,4.78
2022-08-17T10:48:13.944Z,5.10
2022-08-17T10:50:55.845Z,3.28
2022-08-17T10:53:31.479Z,4.32
2022-08-17T10:56:21.649Z,7.85
2022-08-17T10:58:59.829Z,4.00
2022-08-17T11:01:32.466Z,3.83
2022-08-17T11:04:08.612Z,3.55
2022-08-17T11:06:51.731Z,4.93
2022-08-17T11:09:30.648Z,5.10
2022-08-17T11:12:24.048Z,4.32
2022-08-17T11:15:11.310Z,3.35
2022-08-17T11:18:08.473Z,4.78
2022-08-17T11:20:44.814Z,4.60
2022-08-17T11:23:48.638Z,4.35
2022-08-17T11:26:25.901Z,4.63
2022-08-17T11:28:59.155Z,4.45
2022-08-17T11:31:44.436Z,4.45
2022-08-17T11:34:26.253Z,4.25
2022-08-17T11:37:00.302Z,6.05
2022-08-17T11:39:41.605Z,6.65
2022-08-17T11:42:25.380Z,3.88
2022-08-17T11:44:53.828Z,4.72
2022-08-17T11:47:49.529Z,5.65
2022-08-17T11:51:18.974Z,5.28
2022-08-17T11:53:45.717Z,5.75
2022-08-17T11:56:41.772Z,5.72
2022-08-17T11:59:32.881Z,3.42
2022-08-17T12:02:31.640Z,4.38
2022-08-17T12:05:12.305Z,3.70
2022-08-17T12:07:51.885Z,5.25
2022-08-17T12:10:25.589Z,4.80
2022-08-17T12:12:53.977Z,3.97
2022-08-17T12:15:28.660Z,4.13
2022-08-17T12:17:57.049Z,4.57
2022-08-17T12:20:29.001Z,3.83
2022-08-17T12:23:07.578Z,4.25
2022-08-17T12:25:37.845Z,6.68
2022-08-17T12:28:20.143Z,5.03
2022-08-17T12:30:51.986Z,6.78
2022-08-17T12:33:25.654Z,7.32
2022-08-17T12:36:03.104Z,4.00
2022-08-17T12:38:36.010Z,4.72
2022-08-17T12:41:24.605Z,6.28
2022-08-17T12:44:04.203Z,4.00
2022-08-17T12:46:35.886Z,6.07
2022-08-17T12:49:21.299Z,3.15
2022-08-17T12:51:48.058Z,5.05
2022-08-17T12:54:26.400Z,4.60
2022-08-17T12:56:53.481Z,3.05
2022-08-17T12:59:30.435Z,3.38
2022-08-17T13:02:00.748Z,6.00
2022-08-17T13:04:29.566Z,4.85
2022-08-17T13:06:59.824Z,4.65
2022-08-17T13:09:40.493Z,5.65
2022-08-17T13:12:08.016Z,2.90
2022-08-17T13:14:35.335Z,3.15
2022-08-17T13:17:13.329Z,5.97
2022-08-17T13:19:50.234Z,5.05
2022-08-17T13:22:22.480Z,3.40
2022-08-17T13:24:55.150Z,4.57
2022-08-17T13:27:26.325Z,5.72
2022-08-17T13:30:07.519Z,3.20
2022-08-17T13:32:48.705Z,7.75
2022-08-17T13:35:39.272Z,7.82
2022-08-17T13:38:18.675Z,7.85
2022-08-17T13:40:50.353Z,9.20
2022-08-17T13:43:48.646Z,4.25
2022-08-17T13:46:28.356Z,4.82
2022-08-17T13:49:09.837Z,6.07
2022-08-17T13:51:44.269Z,7.18
2022-08-17T13:54:35.107Z,5.40
2022-08-17T13:57:15.943Z,6.03
2022-08-17T13:59:54.277Z,4.50
2022-08-17T14:02:25.952Z,4.40
2022-08-17T14:04:55.754Z,6.47
2022-08-17T14:07:33.834Z,4.53
2022-08-17T14:10:03.405Z,6.15
2022-08-17T14:12:33.323Z,5.68
2022-08-17T14:15:00.666Z,7.53
2022-08-17T14:17:29.437Z,7.30
2022-08-17T14:19:56.105Z,3.58
2022-08-17T14:22:29.758Z,3.05
2022-08-17T14:25:00.997Z,5.28
2022-08-17T14:27:30.780Z,5.85
2022-08-17T14:29:58.046Z,3.75
2022-08-17T14:32:34.076Z,7.40
2022-08-17T14:35:05.664Z,4.57
2022-08-17T14:37:32.701Z,7.75
2022-08-17T14:40:02.210Z,5.75
2022-08-17T14:42:31.776Z,5.88
2022-08-17T14:44:59.425Z,4.22
2022-08-17T14:47:29.287Z,5.32
2022-08-17T14:49:56.010Z,5.25
2022-08-17T14:52:23.052Z,6.60
2022-08-17T14:54:51.504Z,7.30
2022-08-17T14:57:33.632Z,8.10
2022-08-17T15:00:02.825Z,6.13
2022-08-17T15:02:31.389Z,9.18
2022-08-17T15:05:05.261Z,5.95
2022-08-17T15:07:32.117Z,7.47
2022-08-17T15:10:02.654Z,6.75
2022-08-17T15:12:33.780Z,8.23
2022-08-17T15:15:06.375Z,6.22
2022-08-17T15:17:44.281Z,9.20
2022-08-17T15:20:18.827Z,7.00
2022-08-17T15:22:49.829Z,8.13
2022-08-17T15:25:19.268Z,6.30
2022-08-17T15:27:52.256Z,8.95
2022-08-17T15:30:27.447Z,6.75
2022-08-17T15:32:56.708Z,7.10
2022-08-17T15:35:29.324Z,11.38
2022-08-17T15:38:12.393Z,5.55
2022-08-17T15:40:49.569Z,7.43
2022-08-17T15:43:32.404Z,5.03
2022-08-17T15:46:06.575Z,4.78
2022-08-17T15:48:44.653Z,11.85
2022-08-17T15:51:16.936Z,8.35
2022-08-17T15:53:49.310Z,5.55
2022-08-17T15:56:16.837Z,4.70
2022-08-17T15:58:45.279Z,8.20
2022-08-17T16:01:14.852Z,7.17
2022-08-17T16:04:07.176Z,6.00
2022-08-17T16:06:50.395Z,7.88
2022-08-17T16:09:19.381Z,3.60
2022-08-17T16:12:02.433Z,5.57
2022-08-17T16:14:34.142Z,4.68
2022-08-17T16:17:03.030Z,6.20
2022-08-17T16:19:29.787Z,7.30
2022-08-17T16:21:59.554Z,7.07
2022-08-17T16:24:26.321Z,7.32
2022-08-17T16:26:53.635Z,4.43
2022-08-17T16:29:22.471Z,8.02
2022-08-17T16:31:49.672Z,4.88
2022-08-17T16:34:19.578Z,6.53
2022-08-17T16:36:53.679Z,9.70
2022-08-17T16:39:30.017Z,6.68
2022-08-17T16:41:57.275Z,8.32
2022-08-17T16:44:26.087Z,7.22
2022-08-17T16:46:56.629Z,8.02
2022-08-17T16:49:35.706Z,6.28
2022-08-17T16:52:12.889Z,5.60
2022-08-17T16:54:43.954Z,6.68
2022-08-17T16:57:12.130Z,5.72
2022-08-17T16:59:42.640Z,6.72
2022-08-17T17:02:16.131Z,7.93
2022-08-17T17:05:03.100Z,4.60
2022-08-17T17:07:52.475Z,5.28
2022-08-17T17:10:44.335Z,7.25
2022-08-17T17:13:26.174Z,7.45
2022-08-17T17:16:15.089Z,7.18
2022-08-17T17:18:53.410Z,5.43
2022-08-17T17:29:28.572Z,4.13
2022-08-17T17:32:40.934Z,7.72
2022-08-17T17:35:19.836Z,6.35
2022-08-17T17:37:56.345Z,9.00
2022-08-17T17:40:40.450Z,6.47
2022-08-17T17:43:39.782Z,5.78
2022-08-17T17:46:43.211Z,7.75
2022-08-17T17:49:20.379Z,9.85
2022-08-17T17:52:20.411Z,9.90
2022-08-17T18:05:52.143Z,7.07
2022-08-17T18:08:54.475Z,6.13
2022-08-17T18:11:45.605Z,7.40
2022-08-17T18:14:59.266Z,7.90
2022-08-17T18:17:39.677Z,7.25
2022-08-17T18:20:43.397Z,4.13
2022-08-17T18:23:40.644Z,6.45
2022-08-17T18:26:10.114Z,7.45
2022-08-17T18:28:51.332Z,6.53
2022-08-17T18:31:25.067Z,5.72
2022-08-17T18:37:37.616Z,8.70
2022-08-17T18:40:40.102Z,5.28
2022-08-17T18:43:43.951Z,6.55
2022-08-17T18:49:29.766Z,7.15
2022-08-17T18:52:35.906Z,6.35
2022-08-17T18:55:35.755Z,5.93
2022-08-17T18:58:43.238Z,7.82
2022-08-17T19:01:46.998Z,7.75
2022-08-17T19:04:49.724Z,14.27
2022-08-17T19:14:12.302Z,8.77
2022-08-17T19:20:01.462Z,7.18
2022-08-17T19:23:17.384Z,8.68
2022-08-17T19:26:23.338Z,13.85
2022-08-17T19:29:09.754Z,7.43
2022-08-17T19:31:50.607Z,10.82
2022-08-17T19:41:55.033Z,11.20
2022-08-17T19:44:47.511Z,9.07
2022-08-17T20:00:00.613Z,9.50
2022-08-17T20:02:59.246Z,9.77
2022-08-17T20:06:08.689Z,5.50
2022-08-17T20:08:42.493Z,12.23
2022-08-17T20:11:42.640Z,7.22
2022-08-17T20:14:53.450Z,11.05
2022-08-17T20:17:39.150Z,13.75
2022-08-17T20:20:33.906Z,13.05
2022-08-17T20:23:37.304Z,14.15
2022-08-17T20:26:22.670Z,12.77
2022-08-17T20:29:12.677Z,11.13
2022-08-17T20:31:45.774Z,12.88
2022-08-17T20:34:40.412Z,13.85
2022-08-17T20:37:10.988Z,9.20
2022-08-17T20:40:09.062Z,10.05
2022-08-17T20:42:36.638Z,12.55
2022-08-17T20:45:26.507Z,14.63
2022-08-17T20:48:35.697Z,10.13
2022-08-17T20:50:56.609Z,10.30
2022-08-17T20:54:06.804Z,12.07
2022-08-17T20:56:49.356Z,10.35
2022-08-17T20:59:32.415Z,9.00
2022-08-17T21:02:18.331Z,10.40
2022-08-17T21:05:26.399Z,13.93
2022-08-17T21:08:01.075Z,7.65
2022-08-17T21:10:35.766Z,9.25
2022-08-17T21:13:10.762Z,10.93
2022-08-17T21:15:56.022Z,9.18
2022-08-17T21:18:44.613Z,9.55
2022-08-17T21:21:29.332Z,20.05
2022-08-17T21:24:25.535Z,12.07
2022-08-17T21:27:05.447Z,11.30
2022-08-17T21:32:06.385Z,12.20
2022-08-17T21:34:42.448Z,10.68
2022-08-17T21:37:29.654Z,7.03
2022-08-17T21:40:19.469Z,13.18
2022-08-17T21:45:27.213Z,15.48
2022-08-17T21:48:24.640Z,9.65
2022-08-17T21:51:12.266Z,8.02
2022-08-17T21:53:48.417Z,9.77
2022-08-17T21:56:29.235Z,9.63
2022-08-17T21:59:29.620Z,10.60
2022-08-17T22:02:18.084Z,10.20
2022-08-17T22:05:16.596Z,10.88
2022-08-17T22:07:46.551Z,14.38
2022-08-17T22:10:40.731Z,23.20
2022-08-17T22:13:19.759Z,17.65
2022-08-17T22:16:27.705Z,12.85
2022-08-17T22:18:57.721Z,13.13
2022-08-17T22:21:25.075Z,10.63
2022-08-17T22:24:14.222Z,8.25
2022-08-17T22:27:03.558Z,7.60
2022-08-17T22:29:53.269Z,8.02
2022-08-17T22:32:38.004Z,8.60
2022-08-17T22:35:32.702Z,7.50
2022-08-17T22:38:18.144Z,9.90
2022-08-17T22:40:51.146Z,8.43
2022-08-17T22:43:26.035Z,8.55
2022-08-17T22:45:57.282Z,9.00
2022-08-17T22:48:29.201Z,9.05
2022-08-17T22:51:16.954Z,6.95
2022-08-17T22:54:08.134Z,10.88
2022-08-17T22:56:56.317Z,7.60
2022-08-17T22:59:51.477Z,10.73
2022-08-17T23:02:33.170Z,14.98
2022-08-17T23:05:16.571Z,9.65
2022-08-17T23:07:45.383Z,6.90
2022-08-17T23:10:14.323Z,9.32
2022-08-17T23:12:41.009Z,11.23
2022-08-17T23:15:15.944Z,11.70
2022-08-17T23:17:43.126Z,9.05
2022-08-17T23:20:14.941Z,8.85
2022-08-17T23:22:52.438Z,13.02
2022-08-17T23:25:27.798Z,9.93
2022-08-17T23:27:55.584Z,10.07
2022-08-17T23:30:25.336Z,9.48
2022-08-17T23:32:56.481Z,7.22
2022-08-17T23:35:39.335Z,14.23
2022-08-17T23:38:11.708Z,8.18
2022-08-17T23:40:39.731Z,10.63
2022-08-17T23:43:23.457Z,9.60
2022-08-17T23:45:52.372Z,11.35
2022-08-17T23:48:32.424Z,8.48
2022-08-17T23:51:09.105Z,10.55
2022-08-17T23:53:37.654Z,15.88
2022-08-17T23:56:09.339Z,12.02
2022-08-17T23:58:42.351Z,15.40
